sensor_id;sensor_type;location;lat;lon;timestamp;temperature;humidity
27890;DHT22;15238;49.082;9.102;2023-11-21T00:00:14;8.30;99.90
27890;DHT22;15238;49.082;9.102;2023-11-21T00:02:15;8.30;99.90
27890;DHT22;15238;49.082;9.102;2023-11-21T00:04:16;8.30;99.90
27890;DHT22;15238;49.082;9.102;2023-11-21T00:06:16;8.30;99.90
27890;DHT22;15238;49.082;9.102;2023-11-21T00:08:17;8.30;99.90
27890;DHT22;15238;49.082;9.102;2023-11-21T00:10:17;8.30;99.90
27890;DHT22;15238;49.082;9.102;2023-11-21T00:12:18;8.30;99.90
27890;DHT22;15238;49.082;9.102;2023-11-21T00:14:18;8.30;99.90
27890;DHT22;15238;49.082;9.102;2023-11-21T00:16:19;8.40;99.90
27890;DHT22;15238;49.082;9.102;2023-11-21T00:18:19;8.30;99.90
27890;DHT22;15238;49.082;9.102;2023-11-21T00:20:20;8.30;99.90
27890;DHT22;15238;49.082;9.102;2023-11-21T00:22:21;8.30;99.90
27890;DHT22;15238;49.082;9.102;2023-11-21T00:24:21;8.30;99.90
27890;DHT22;15238;49.082;9.102;2023-11-21T00:26:22;8.40;99.90
27890;DHT22;15238;49.082;9.102;2023-11-21T00:28:22;8.30;99.90
27890;DHT22;15238;49.082;9.102;2023-11-21T00:30:23;8.40;99.90
27890;DHT22;15238;49.082;9.102;2023-11-21T00:32:23;8.40;99.90
27890;DHT22;15238;49.082;9.102;2023-11-21T00:34:24;8.40;99.90
27890;DHT22;15238;49.082;9.102;2023-11-21T00:36:24;8.40;99.90
27890;DHT22;15238;49.082;9.102;2023-11-21T00:38:26;8.30;99.90
27890;DHT22;15238;49.082;9.102;2023-11-21T00:40:27;8.40;99.90
27890;DHT22;15238;49.082;9.102;2023-11-21T00:42:28;8.40;99.90
27890;DHT22;15238;49.082;9.102;2023-11-21T00:44:28;8.30;99.90
27890;DHT22;15238;49.082;9.102;2023-11-21T00:46:29;8.30;99.90
27890;DHT22;15238;49.082;9.102;2023-11-21T00:48:29;8.30;99.90
27890;DHT22;15238;49.082;9.102;2023-11-21T00:50:30;8.30;99.90
27890;DHT22;15238;49.082;9.102;2023-11-21T00:52:30;8.30;99.90
27890;DHT22;15238;49.082;9.102;2023-11-21T00:54:31;8.40;99.90
27890;DHT22;15238;49.082;9.102;2023-11-21T00:56:31;8.40;99.90
27890;DHT22;15238;49.082;9.102;2023-11-21T00:58:32;8.40;99.90
27890;DHT22;15238;49.082;9.102;2023-11-21T01:00:33;8.40;99.90
27890;DHT22;15238;49.082;9.102;2023-11-21T01:02:34;8.40;99.90
27890;DHT22;15238;49.082;9.102;2023-11-21T01:04:36;8.40;99.90
27890;DHT22;15238;49.082;9.102;2023-11-21T01:06:36;8.30;99.90
27890;DHT22;15238;49.082;9.102;2023-11-21T01:08:37;8.40;99.90
27890;DHT22;15238;49.082;9.102;2023-11-21T01:10:37;8.30;99.90
27890;DHT22;15238;49.082;9.102;2023-11-21T01:12:38;8.30;99.90
27890;DHT22;15238;49.082;9.102;2023-11-21T01:14:39;8.20;99.90
27890;DHT22;15238;49.082;9.102;2023-11-21T01:16:39;8.20;99.90
27890;DHT22;15238;49.082;9.102;2023-11-21T01:18:40;8.20;99.90
27890;DHT22;15238;49.082;9.102;2023-11-21T01:20:41;8.10;99.90
27890;DHT22;15238;49.082;9.102;2023-11-21T01:22:41;8.10;99.90
27890;DHT22;15238;49.082;9.102;2023-11-21T01:24:42;8.10;99.90
27890;DHT22;15238;49.082;9.102;2023-11-21T01:26:42;8.10;99.90
27890;DHT22;15238;49.082;9.102;2023-11-21T01:28:43;8.10;99.90
27890;DHT22;15238;49.082;9.102;2023-11-21T01:30:44;8.00;99.90
27890;DHT22;15238;49.082;9.102;2023-11-21T01:32:44;8.00;99.90
27890;DHT22;15238;49.082;9.102;2023-11-21T01:34:45;8.00;99.90
27890;DHT22;15238;49.082;9.102;2023-11-21T01:36:46;8.10;99.90
27890;DHT22;15238;49.082;9.102;2023-11-21T01:38:47;8.10;99.90
27890;DHT22;15238;49.082;9.102;2023-11-21T01:40:50;8.10;99.90
27890;DHT22;15238;49.082;9.102;2023-11-21T01:42:53;8.10;99.90
27890;DHT22;15238;49.082;9.102;2023-11-21T01:44:53;8.10;99.90
27890;DHT22;15238;49.082;9.102;2023-11-21T01:46:55;8.10;99.90
27890;DHT22;15238;49.082;9.102;2023-11-21T01:48:57;8.10;99.90
27890;DHT22;15238;49.082;9.102;2023-11-21T01:50:58;8.10;99.90
27890;DHT22;15238;49.082;9.102;2023-11-21T01:52:59;8.10;99.90
27890;DHT22;15238;49.082;9.102;2023-11-21T01:55:01;8.10;99.90
27890;DHT22;15238;49.082;9.102;2023-11-21T01:57:04;8.20;99.90
27890;DHT22;15238;49.082;9.102;2023-11-21T01:59:06;8.20;99.90
27890;DHT22;15238;49.082;9.102;2023-11-21T02:01:07;8.20;99.90
27890;DHT22;15238;49.082;9.102;2023-11-21T02:03:08;8.20;99.90
27890;DHT22;15238;49.082;9.102;2023-11-21T02:05:11;8.20;99.90
27890;DHT22;15238;49.082;9.102;2023-11-21T02:07:15;8.20;99.90
27890;DHT22;15238;49.082;9.102;2023-11-21T02:09:15;8.20;99.90
27890;DHT22;15238;49.082;9.102;2023-11-21T02:11:16;8.20;99.90
27890;DHT22;15238;49.082;9.102;2023-11-21T02:13:16;8.20;99.90
27890;DHT22;15238;49.082;9.102;2023-11-21T02:15:17;8.20;99.90
27890;DHT22;15238;49.082;9.102;2023-11-21T02:17:21;8.20;99.90
27890;DHT22;15238;49.082;9.102;2023-11-21T02:19:22;8.30;99.90
27890;DHT22;15238;49.082;9.102;2023-11-21T02:21:25;8.30;99.90
27890;DHT22;15238;49.082;9.102;2023-11-21T02:23:26;8.30;99.90
27890;DHT22;15238;49.082;9.102;2023-11-21T02:25:32;8.30;99.90
27890;DHT22;15238;49.082;9.102;2023-11-21T02:27:33;8.30;99.90
27890;DHT22;15238;49.082;9.102;2023-11-21T02:29:34;8.30;99.90
27890;DHT22;15238;49.082;9.102;2023-11-21T02:31:34;8.40;99.90
27890;DHT22;15238;49.082;9.102;2023-11-21T02:33:35;8.30;99.90
27890;DHT22;15238;49.082;9.102;2023-11-21T02:35:35;8.40;99.90
27890;DHT22;15238;49.082;9.102;2023-11-21T02:37:36;8.30;99.90
27890;DHT22;15238;49.082;9.102;2023-11-21T02:39:36;8.40;99.90
27890;DHT22;15238;49.082;9.102;2023-11-21T02:41:40;8.30;99.90
27890;DHT22;15238;49.082;9.102;2023-11-21T02:43:40;8.20;99.90
27890;DHT22;15238;49.082;9.102;2023-11-21T02:45:41;8.20;99.90
27890;DHT22;15238;49.082;9.102;2023-11-21T02:47:43;8.20;99.90
27890;DHT22;15238;49.082;9.102;2023-11-21T02:49:43;8.20;99.90
27890;DHT22;15238;49.082;9.102;2023-11-21T02:51:44;8.20;99.90
27890;DHT22;15238;49.082;9.102;2023-11-21T02:53:44;8.20;99.90
27890;DHT22;15238;49.082;9.102;2023-11-21T02:55:46;8.20;99.90
27890;DHT22;15238;49.082;9.102;2023-11-21T02:57:47;8.10;99.90
27890;DHT22;15238;49.082;9.102;2023-11-21T02:59:48;8.10;99.90
27890;DHT22;15238;49.082;9.102;2023-11-21T03:01:49;8.10;99.90
27890;DHT22;15238;49.082;9.102;2023-11-21T03:03:50;8.10;99.90
27890;DHT22;15238;49.082;9.102;2023-11-21T03:05:51;8.10;99.90
27890;DHT22;15238;49.082;9.102;2023-11-21T03:07:51;8.10;99.90
27890;DHT22;15238;49.082;9.102;2023-11-21T03:09:52;8.10;99.90
27890;DHT22;15238;49.082;9.102;2023-11-21T03:11:53;8.10;99.90
27890;DHT22;15238;49.082;9.102;2023-11-21T03:13:54;8.20;99.90
27890;DHT22;15238;49.082;9.102;2023-11-21T03:15:54;8.20;99.90
27890;DHT22;15238;49.082;9.102;2023-11-21T03:17:56;8.20;99.90
27890;DHT22;15238;49.082;9.102;2023-11-21T03:19:57;8.30;99.90
27890;DHT22;15238;49.082;9.102;2023-11-21T03:21:57;8.30;99.90
27890;DHT22;15238;49.082;9.102;2023-11-21T03:23:59;8.30;99.90
27890;DHT22;15238;49.082;9.102;2023-11-21T03:26:00;8.40;99.90
27890;DHT22;15238;49.082;9.102;2023-11-21T03:28:01;8.30;99.90
27890;DHT22;15238;49.082;9.102;2023-11-21T03:30:01;8.40;99.90
27890;DHT22;15238;49.082;9.102;2023-11-21T03:32:04;8.30;99.90
27890;DHT22;15238;49.082;9.102;2023-11-21T03:34:05;8.30;99.90
27890;DHT22;15238;49.082;9.102;2023-11-21T03:36:07;8.30;99.90
27890;DHT22;15238;49.082;9.102;2023-11-21T03:38:10;8.30;99.90
27890;DHT22;15238;49.082;9.102;2023-11-21T03:40:11;8.30;99.90
27890;DHT22;15238;49.082;9.102;2023-11-21T03:42:12;8.30;99.90
27890;DHT22;15238;49.082;9.102;2023-11-21T03:44:13;8.30;99.90
27890;DHT22;15238;49.082;9.102;2023-11-21T03:46:14;8.40;99.90
27890;DHT22;15238;49.082;9.102;2023-11-21T03:48:14;8.40;99.90
27890;DHT22;15238;49.082;9.102;2023-11-21T03:50:16;8.40;99.90
27890;DHT22;15238;49.082;9.102;2023-11-21T03:52:17;8.40;99.90
27890;DHT22;15238;49.082;9.102;2023-11-21T03:54:17;8.30;99.90
27890;DHT22;15238;49.082;9.102;2023-11-21T03:56:19;8.40;99.90
27890;DHT22;15238;49.082;9.102;2023-11-21T03:58:21;8.30;99.90
27890;DHT22;15238;49.082;9.102;2023-11-21T04:00:21;8.30;99.90
27890;DHT22;15238;49.082;9.102;2023-11-21T04:02:22;8.30;99.90
27890;DHT22;15238;49.082;9.102;2023-11-21T04:04:22;8.40;99.90
27890;DHT22;15238;49.082;9.102;2023-11-21T04:06:23;8.30;99.90
27890;DHT22;15238;49.082;9.102;2023-11-21T04:08:23;8.30;99.90
27890;DHT22;15238;49.082;9.102;2023-11-21T04:10:26;8.20;99.90
27890;DHT22;15238;49.082;9.102;2023-11-21T04:12:27;8.20;99.90
27890;DHT22;15238;49.082;9.102;2023-11-21T04:14:28;8.20;99.90
27890;DHT22;15238;49.082;9.102;2023-11-21T04:16:28;8.20;99.90
27890;DHT22;15238;49.082;9.102;2023-11-21T04:18:29;8.20;99.90
27890;DHT22;15238;49.082;9.102;2023-11-21T04:20:29;8.20;99.90
27890;DHT22;15238;49.082;9.102;2023-11-21T04:22:30;8.20;99.90
27890;DHT22;15238;49.082;9.102;2023-11-21T04:24:30;8.20;99.90
27890;DHT22;15238;49.082;9.102;2023-11-21T04:26:31;8.10;99.90
27890;DHT22;15238;49.082;9.102;2023-11-21T04:28:32;8.20;99.90
27890;DHT22;15238;49.082;9.102;2023-11-21T04:30:32;8.20;99.90
27890;DHT22;15238;49.082;9.102;2023-11-21T04:32:33;8.20;99.90
27890;DHT22;15238;49.082;9.102;2023-11-21T04:34:34;8.20;99.90
27890;DHT22;15238;49.082;9.102;2023-11-21T04:36:35;8.20;99.90
27890;DHT22;15238;49.082;9.102;2023-11-21T04:38:35;8.20;99.90
27890;DHT22;15238;49.082;9.102;2023-11-21T04:40:36;8.20;99.90
27890;DHT22;15238;49.082;9.102;2023-11-21T04:42:36;8.20;99.90
27890;DHT22;15238;49.082;9.102;2023-11-21T04:44:37;8.20;99.90
27890;DHT22;15238;49.082;9.102;2023-11-21T04:46:37;8.20;99.90
27890;DHT22;15238;49.082;9.102;2023-11-21T04:48:38;8.20;99.90
27890;DHT22;15238;49.082;9.102;2023-11-21T04:50:38;8.20;99.90
27890;DHT22;15238;49.082;9.102;2023-11-21T04:52:39;8.30;99.90
27890;DHT22;15238;49.082;9.102;2023-11-21T04:54:40;8.30;99.90
27890;DHT22;15238;49.082;9.102;2023-11-21T04:56:40;8.30;99.90
27890;DHT22;15238;49.082;9.102;2023-11-21T04:58:40;8.40;99.90
27890;DHT22;15238;49.082;9.102;2023-11-21T05:00:41;8.40;99.90
27890;DHT22;15238;49.082;9.102;2023-11-21T05:02:41;8.30;99.90
27890;DHT22;15238;49.082;9.102;2023-11-21T05:04:42;8.40;99.90
27890;DHT22;15238;49.082;9.102;2023-11-21T05:06:46;8.40;99.90
27890;DHT22;15238;49.082;9.102;2023-11-21T05:08:46;8.40;99.90
27890;DHT22;15238;49.082;9.102;2023-11-21T05:10:48;8.40;99.90
27890;DHT22;15238;49.082;9.102;2023-11-21T05:12:49;8.50;99.90
27890;DHT22;15238;49.082;9.102;2023-11-21T05:14:51;8.50;99.90
27890;DHT22;15238;49.082;9.102;2023-11-21T05:16:51;8.50;99.90
27890;DHT22;15238;49.082;9.102;2023-11-21T05:18:52;8.50;99.90
27890;DHT22;15238;49.082;9.102;2023-11-21T05:20:53;8.50;99.90
27890;DHT22;15238;49.082;9.102;2023-11-21T05:22:54;8.50;99.90
27890;DHT22;15238;49.082;9.102;2023-11-21T05:24:54;8.50;99.90
27890;DHT22;15238;49.082;9.102;2023-11-21T05:26:55;8.50;99.90
27890;DHT22;15238;49.082;9.102;2023-11-21T05:28:56;8.60;99.90
27890;DHT22;15238;49.082;9.102;2023-11-21T05:30:56;8.60;99.90
27890;DHT22;15238;49.082;9.102;2023-11-21T05:32:57;8.60;99.90
27890;DHT22;15238;49.082;9.102;2023-11-21T05:34:57;8.60;99.90
27890;DHT22;15238;49.082;9.102;2023-11-21T05:36:58;8.60;99.90
27890;DHT22;15238;49.082;9.102;2023-11-21T05:38:59;8.60;99.90
27890;DHT22;15238;49.082;9.102;2023-11-21T05:40:59;8.60;99.90
27890;DHT22;15238;49.082;9.102;2023-11-21T05:43:00;8.60;99.90
27890;DHT22;15238;49.082;9.102;2023-11-21T05:45:00;8.60;99.90
27890;DHT22;15238;49.082;9.102;2023-11-21T05:47:10;8.60;99.90
27890;DHT22;15238;49.082;9.102;2023-11-21T05:49:10;8.60;99.90
27890;DHT22;15238;49.082;9.102;2023-11-21T05:51:11;8.60;99.90
27890;DHT22;15238;49.082;9.102;2023-11-21T05:53:12;8.60;99.90
27890;DHT22;15238;49.082;9.102;2023-11-21T05:55:16;8.60;99.90
27890;DHT22;15238;49.082;9.102;2023-11-21T05:57:16;8.60;99.90
27890;DHT22;15238;49.082;9.102;2023-11-21T05:59:17;8.60;99.90
27890;DHT22;15238;49.082;9.102;2023-11-21T06:01:17;8.70;99.90
27890;DHT22;15238;49.082;9.102;2023-11-21T06:03:18;8.70;99.90
27890;DHT22;15238;49.082;9.102;2023-11-21T06:05:20;8.60;99.90
27890;DHT22;15238;49.082;9.102;2023-11-21T06:07:21;8.70;99.90
27890;DHT22;15238;49.082;9.102;2023-11-21T06:09:21;8.70;99.90
27890;DHT22;15238;49.082;9.102;2023-11-21T06:11:23;8.70;99.90
27890;DHT22;15238;49.082;9.102;2023-11-21T06:13:24;8.70;99.90
27890;DHT22;15238;49.082;9.102;2023-11-21T06:15:25;8.70;99.90
27890;DHT22;15238;49.082;9.102;2023-11-21T06:17:25;8.70;99.90
27890;DHT22;15238;49.082;9.102;2023-11-21T06:19:28;8.70;99.90
27890;DHT22;15238;49.082;9.102;2023-11-21T06:21:28;8.70;99.90
27890;DHT22;15238;49.082;9.102;2023-11-21T06:23:29;8.70;99.90
27890;DHT22;15238;49.082;9.102;2023-11-21T06:25:29;8.70;99.90
27890;DHT22;15238;49.082;9.102;2023-11-21T06:27:43;8.70;99.90
27890;DHT22;15238;49.082;9.102;2023-11-21T06:29:47;8.70;99.90
27890;DHT22;15238;49.082;9.102;2023-11-21T06:31:48;8.70;99.90
27890;DHT22;15238;49.082;9.102;2023-11-21T06:33:49;8.70;99.90
27890;DHT22;15238;49.082;9.102;2023-11-21T06:35:52;8.60;99.90
27890;DHT22;15238;49.082;9.102;2023-11-21T06:37:52;8.60;99.90
27890;DHT22;15238;49.082;9.102;2023-11-21T06:39:53;8.60;99.90
27890;DHT22;15238;49.082;9.102;2023-11-21T06:41:54;8.60;99.90
27890;DHT22;15238;49.082;9.102;2023-11-21T06:43:54;8.60;99.90
27890;DHT22;15238;49.082;9.102;2023-11-21T06:45:55;8.60;99.90
27890;DHT22;15238;49.082;9.102;2023-11-21T06:47:55;8.60;99.90
27890;DHT22;15238;49.082;9.102;2023-11-21T06:49:56;8.60;99.90
27890;DHT22;15238;49.082;9.102;2023-11-21T06:51:57;8.60;99.90
27890;DHT22;15238;49.082;9.102;2023-11-21T06:53:58;8.60;99.90
27890;DHT22;15238;49.082;9.102;2023-11-21T06:55:59;8.60;99.90
27890;DHT22;15238;49.082;9.102;2023-11-21T06:58:00;8.60;99.90
27890;DHT22;15238;49.082;9.102;2023-11-21T07:00:01;8.50;99.90
27890;DHT22;15238;49.082;9.102;2023-11-21T07:02:01;8.50;99.90
27890;DHT22;15238;49.082;9.102;2023-11-21T07:04:02;8.50;99.90
27890;DHT22;15238;49.082;9.102;2023-11-21T07:06:03;8.50;99.90
27890;DHT22;15238;49.082;9.102;2023-11-21T07:08:04;8.50;99.90
27890;DHT22;15238;49.082;9.102;2023-11-21T07:10:05;8.50;99.90
27890;DHT22;15238;49.082;9.102;2023-11-21T07:12:06;8.50;99.90
27890;DHT22;15238;49.082;9.102;2023-11-21T07:14:08;8.50;99.90
27890;DHT22;15238;49.082;9.102;2023-11-21T07:16:09;8.50;99.90
27890;DHT22;15238;49.082;9.102;2023-11-21T07:18:10;8.50;99.90
27890;DHT22;15238;49.082;9.102;2023-11-21T07:20:12;8.50;99.90
27890;DHT22;15238;49.082;9.102;2023-11-21T07:22:12;8.60;99.90
27890;DHT22;15238;49.082;9.102;2023-11-21T07:24:14;8.60;99.90
27890;DHT22;15238;49.082;9.102;2023-11-21T07:26:14;8.60;99.90
27890;DHT22;15238;49.082;9.102;2023-11-21T07:28:15;8.60;99.90
27890;DHT22;15238;49.082;9.102;2023-11-21T07:30:15;8.60;99.90
27890;DHT22;15238;49.082;9.102;2023-11-21T07:32:16;8.50;99.90
27890;DHT22;15238;49.082;9.102;2023-11-21T07:34:16;8.50;99.90
27890;DHT22;15238;49.082;9.102;2023-11-21T07:36:17;8.60;99.90
27890;DHT22;15238;49.082;9.102;2023-11-21T07:38:19;8.60;99.90
27890;DHT22;15238;49.082;9.102;2023-11-21T07:40:19;8.60;99.90
27890;DHT22;15238;49.082;9.102;2023-11-21T07:42:20;8.60;99.90
27890;DHT22;15238;49.082;9.102;2023-11-21T07:44:20;8.60;99.90
27890;DHT22;15238;49.082;9.102;2023-11-21T07:46:21;8.70;99.90
27890;DHT22;15238;49.082;9.102;2023-11-21T07:48:22;8.60;99.90
27890;DHT22;15238;49.082;9.102;2023-11-21T07:50:23;8.70;99.90
27890;DHT22;15238;49.082;9.102;2023-11-21T07:52:24;8.70;99.90
27890;DHT22;15238;49.082;9.102;2023-11-21T07:54:24;8.70;99.90
27890;DHT22;15238;49.082;9.102;2023-11-21T07:56:25;8.70;99.90
27890;DHT22;15238;49.082;9.102;2023-11-21T07:58:25;8.70;99.90
27890;DHT22;15238;49.082;9.102;2023-11-21T08:00:26;8.70;99.90
27890;DHT22;15238;49.082;9.102;2023-11-21T08:02:30;8.70;99.90
27890;DHT22;15238;49.082;9.102;2023-11-21T08:04:30;8.70;99.90
27890;DHT22;15238;49.082;9.102;2023-11-21T08:06:32;8.70;99.90
27890;DHT22;15238;49.082;9.102;2023-11-21T08:08:33;8.80;99.90
27890;DHT22;15238;49.082;9.102;2023-11-21T08:10:34;8.80;99.90
27890;DHT22;15238;49.082;9.102;2023-11-21T08:12:35;8.80;99.90
27890;DHT22;15238;49.082;9.102;2023-11-21T08:14:36;8.80;99.90
27890;DHT22;15238;49.082;9.102;2023-11-21T08:16:39;8.90;99.90
27890;DHT22;15238;49.082;9.102;2023-11-21T08:18:39;8.90;99.90
27890;DHT22;15238;49.082;9.102;2023-11-21T08:20:41;9.00;99.90
27890;DHT22;15238;49.082;9.102;2023-11-21T08:22:43;9.00;99.90
27890;DHT22;15238;49.082;9.102;2023-11-21T08:24:44;9.10;99.90
27890;DHT22;15238;49.082;9.102;2023-11-21T08:26:44;9.10;99.90
27890;DHT22;15238;49.082;9.102;2023-11-21T08:28:45;9.20;99.90
27890;DHT22;15238;49.082;9.102;2023-11-21T08:30:45;9.20;99.90
27890;DHT22;15238;49.082;9.102;2023-11-21T08:32:46;9.30;99.90
27890;DHT22;15238;49.082;9.102;2023-11-21T08:34:47;9.40;99.90
27890;DHT22;15238;49.082;9.102;2023-11-21T08:36:50;9.40;99.90
27890;DHT22;15238;49.082;9.102;2023-11-21T08:38:51;9.50;99.90
27890;DHT22;15238;49.082;9.102;2023-11-21T08:40:55;9.60;99.90
27890;DHT22;15238;49.082;9.102;2023-11-21T08:42:55;9.60;99.90
27890;DHT22;15238;49.082;9.102;2023-11-21T08:44:56;9.60;99.90
27890;DHT22;15238;49.082;9.102;2023-11-21T08:46:59;9.50;99.90
27890;DHT22;15238;49.082;9.102;2023-11-21T08:49:03;9.40;99.90
27890;DHT22;15238;49.082;9.102;2023-11-21T08:51:04;9.40;99.90
27890;DHT22;15238;49.082;9.102;2023-11-21T08:53:05;9.40;99.90
27890;DHT22;15238;49.082;9.102;2023-11-21T08:55:06;9.40;99.90
27890;DHT22;15238;49.082;9.102;2023-11-21T08:57:12;9.40;99.90
27890;DHT22;15238;49.082;9.102;2023-11-21T08:59:13;9.50;99.90
27890;DHT22;15238;49.082;9.102;2023-11-21T09:01:14;9.50;99.90
27890;DHT22;15238;49.082;9.102;2023-11-21T09:03:15;9.40;99.90
27890;DHT22;15238;49.082;9.102;2023-11-21T09:05:15;9.50;99.90
27890;DHT22;15238;49.082;9.102;2023-11-21T09:07:17;9.40;99.90
27890;DHT22;15238;49.082;9.102;2023-11-21T09:09:20;9.30;99.90
27890;DHT22;15238;49.082;9.102;2023-11-21T09:11:21;9.20;99.90
27890;DHT22;15238;49.082;9.102;2023-11-21T09:13:21;9.20;99.90
27890;DHT22;15238;49.082;9.102;2023-11-21T09:15:22;9.20;99.90
27890;DHT22;15238;49.082;9.102;2023-11-21T09:17:23;9.20;99.90
27890;DHT22;15238;49.082;9.102;2023-11-21T09:19:23;9.10;99.90
27890;DHT22;15238;49.082;9.102;2023-11-21T09:21:25;9.10;99.90
27890;DHT22;15238;49.082;9.102;2023-11-21T09:23:26;9.10;99.90
27890;DHT22;15238;49.082;9.102;2023-11-21T09:25:26;9.20;99.90
27890;DHT22;15238;49.082;9.102;2023-11-21T09:27:29;9.20;99.90
27890;DHT22;15238;49.082;9.102;2023-11-21T09:29:30;9.30;99.90
27890;DHT22;15238;49.082;9.102;2023-11-21T09:31:30;9.30;99.90
27890;DHT22;15238;49.082;9.102;2023-11-21T09:33:31;9.40;99.90
27890;DHT22;15238;49.082;9.102;2023-11-21T09:35:32;9.50;99.90
27890;DHT22;15238;49.082;9.102;2023-11-21T09:37:32;9.50;99.90
27890;DHT22;15238;49.082;9.102;2023-11-21T09:39:33;9.50;99.90
27890;DHT22;15238;49.082;9.102;2023-11-21T09:41:43;9.50;99.90
27890;DHT22;15238;49.082;9.102;2023-11-21T09:43:47;9.50;99.90
27890;DHT22;15238;49.082;9.102;2023-11-21T09:46:00;9.50;99.90
27890;DHT22;15238;49.082;9.102;2023-11-21T09:48:02;9.50;99.90
27890;DHT22;15238;49.082;9.102;2023-11-21T09:50:03;9.60;99.90
27890;DHT22;15238;49.082;9.102;2023-11-21T09:52:06;9.70;99.90
27890;DHT22;15238;49.082;9.102;2023-11-21T09:54:10;9.70;99.90
27890;DHT22;15238;49.082;9.102;2023-11-21T09:56:10;9.90;99.90
27890;DHT22;15238;49.082;9.102;2023-11-21T09:58:11;9.90;99.90
27890;DHT22;15238;49.082;9.102;2023-11-21T10:00:13;10.00;99.90
27890;DHT22;15238;49.082;9.102;2023-11-21T10:02:17;10.00;99.90
27890;DHT22;15238;49.082;9.102;2023-11-21T10:04:18;10.10;99.90
27890;DHT22;15238;49.082;9.102;2023-11-21T10:06:21;10.20;99.90
27890;DHT22;15238;49.082;9.102;2023-11-21T10:08:23;10.30;99.90
27890;DHT22;15238;49.082;9.102;2023-11-21T10:10:24;10.40;99.90
27890;DHT22;15238;49.082;9.102;2023-11-21T10:12:26;10.50;99.90
27890;DHT22;15238;49.082;9.102;2023-11-21T10:14:29;10.50;99.90
27890;DHT22;15238;49.082;9.102;2023-11-21T10:16:31;10.50;99.90
27890;DHT22;15238;49.082;9.102;2023-11-21T10:18:33;10.50;99.90
27890;DHT22;15238;49.082;9.102;2023-11-21T10:20:34;10.60;99.90
27890;DHT22;15238;49.082;9.102;2023-11-21T10:22:35;10.60;99.90
27890;DHT22;15238;49.082;9.102;2023-11-21T10:24:36;10.70;99.90
27890;DHT22;15238;49.082;9.102;2023-11-21T10:26:38;10.80;99.90
27890;DHT22;15238;49.082;9.102;2023-11-21T10:28:38;10.70;99.90
27890;DHT22;15238;49.082;9.102;2023-11-21T10:30:39;10.80;99.90
27890;DHT22;15238;49.082;9.102;2023-11-21T10:32:41;11.10;99.90
27890;DHT22;15238;49.082;9.102;2023-11-21T10:34:41;11.20;99.90
27890;DHT22;15238;49.082;9.102;2023-11-21T10:36:42;11.20;99.90
27890;DHT22;15238;49.082;9.102;2023-11-21T10:38:43;11.20;99.90
27890;DHT22;15238;49.082;9.102;2023-11-21T10:40:45;11.20;99.90
27890;DHT22;15238;49.082;9.102;2023-11-21T10:42:47;11.20;99.90
27890;DHT22;15238;49.082;9.102;2023-11-21T10:44:47;11.30;99.90
27890;DHT22;15238;49.082;9.102;2023-11-21T10:46:52;11.30;99.90
27890;DHT22;15238;49.082;9.102;2023-11-21T10:48:56;11.40;99.90
27890;DHT22;15238;49.082;9.102;2023-11-21T10:50:57;11.40;99.90
27890;DHT22;15238;49.082;9.102;2023-11-21T10:52:57;11.40;99.90
27890;DHT22;15238;49.082;9.102;2023-11-21T10:54:58;11.40;99.90
27890;DHT22;15238;49.082;9.102;2023-11-21T10:57:03;11.40;99.90
27890;DHT22;15238;49.082;9.102;2023-11-21T10:59:04;11.50;99.90
27890;DHT22;15238;49.082;9.102;2023-11-21T11:01:07;11.50;99.90
27890;DHT22;15238;49.082;9.102;2023-11-21T11:03:09;11.50;99.90
27890;DHT22;15238;49.082;9.102;2023-11-21T11:05:16;11.40;99.90
27890;DHT22;15238;49.082;9.102;2023-11-21T11:07:17;11.30;99.90
27890;DHT22;15238;49.082;9.102;2023-11-21T11:09:19;11.20;99.90
27890;DHT22;15238;49.082;9.102;2023-11-21T11:11:20;11.10;99.90
27890;DHT22;15238;49.082;9.102;2023-11-21T11:13:22;11.00;99.90
27890;DHT22;15238;49.082;9.102;2023-11-21T11:15:27;10.80;99.90
27890;DHT22;15238;49.082;9.102;2023-11-21T11:17:28;10.50;99.90
27890;DHT22;15238;49.082;9.102;2023-11-21T11:19:28;10.40;99.90
27890;DHT22;15238;49.082;9.102;2023-11-21T11:21:43;10.30;99.90
27890;DHT22;15238;49.082;9.102;2023-11-21T11:26:30;10.20;99.90
27890;DHT22;15238;49.082;9.102;2023-11-21T11:28:57;10.20;99.90
27890;DHT22;15238;49.082;9.102;2023-11-21T11:31:14;10.30;99.90
27890;DHT22;15238;49.082;9.102;2023-11-21T11:33:37;10.10;99.90
27890;DHT22;15238;49.082;9.102;2023-11-21T11:35:57;10.00;99.90
27890;DHT22;15238;49.082;9.102;2023-11-21T11:38:01;9.90;99.90
27890;DHT22;15238;49.082;9.102;2023-11-21T11:40:06;9.80;99.90
27890;DHT22;15238;49.082;9.102;2023-11-21T11:42:08;9.80;99.90
27890;DHT22;15238;49.082;9.102;2023-11-21T11:46:47;9.80;99.90
27890;DHT22;15238;49.082;9.102;2023-11-21T11:48:49;9.70;99.90
27890;DHT22;15238;49.082;9.102;2023-11-21T11:51:20;9.70;99.90
27890;DHT22;15238;49.082;9.102;2023-11-21T11:53:22;9.70;99.90
27890;DHT22;15238;49.082;9.102;2023-11-21T11:55:24;9.70;99.90
27890;DHT22;15238;49.082;9.102;2023-11-21T11:57:25;9.70;99.90
27890;DHT22;15238;49.082;9.102;2023-11-21T11:59:26;9.60;99.90
27890;DHT22;15238;49.082;9.102;2023-11-21T12:01:27;9.70;99.90
27890;DHT22;15238;49.082;9.102;2023-11-21T12:03:27;9.70;99.90
27890;DHT22;15238;49.082;9.102;2023-11-21T12:05:28;9.70;99.90
27890;DHT22;15238;49.082;9.102;2023-11-21T12:07:49;9.70;99.90
27890;DHT22;15238;49.082;9.102;2023-11-21T12:09:51;9.70;99.90
27890;DHT22;15238;49.082;9.102;2023-11-21T12:11:53;9.70;99.90
27890;DHT22;15238;49.082;9.102;2023-11-21T12:13:55;9.70;99.90
27890;DHT22;15238;49.082;9.102;2023-11-21T12:15:55;9.80;99.90
27890;DHT22;15238;49.082;9.102;2023-11-21T12:17:56;9.80;99.90
27890;DHT22;15238;49.082;9.102;2023-11-21T12:20:03;9.80;99.90
27890;DHT22;15238;49.082;9.102;2023-11-21T12:22:05;9.80;99.90
27890;DHT22;15238;49.082;9.102;2023-11-21T12:24:05;9.80;99.90
27890;DHT22;15238;49.082;9.102;2023-11-21T12:26:08;9.80;99.90
27890;DHT22;15238;49.082;9.102;2023-11-21T12:28:10;9.70;99.90
27890;DHT22;15238;49.082;9.102;2023-11-21T12:30:13;9.70;99.90
27890;DHT22;15238;49.082;9.102;2023-11-21T12:32:14;9.70;99.90
27890;DHT22;15238;49.082;9.102;2023-11-21T12:34:16;9.70;99.90
27890;DHT22;15238;49.082;9.102;2023-11-21T12:36:18;9.80;99.90
27890;DHT22;15238;49.082;9.102;2023-11-21T12:38:19;9.80;99.90
27890;DHT22;15238;49.082;9.102;2023-11-21T12:40:20;9.90;99.90
27890;DHT22;15238;49.082;9.102;2023-11-21T12:42:23;9.90;99.90
27890;DHT22;15238;49.082;9.102;2023-11-21T12:44:24;10.00;99.90
27890;DHT22;15238;49.082;9.102;2023-11-21T12:46:24;10.10;99.90
27890;DHT22;15238;49.082;9.102;2023-11-21T12:48:29;10.10;99.90
27890;DHT22;15238;49.082;9.102;2023-11-21T12:50:31;10.20;99.90
27890;DHT22;15238;49.082;9.102;2023-11-21T12:52:33;10.20;99.90
27890;DHT22;15238;49.082;9.102;2023-11-21T12:54:34;10.30;99.90
27890;DHT22;15238;49.082;9.102;2023-11-21T12:56:38;10.30;99.90
27890;DHT22;15238;49.082;9.102;2023-11-21T12:58:40;10.40;99.90
27890;DHT22;15238;49.082;9.102;2023-11-21T13:00:46;10.40;99.90
27890;DHT22;15238;49.082;9.102;2023-11-21T13:02:47;10.40;99.90
27890;DHT22;15238;49.082;9.102;2023-11-21T13:04:52;10.30;99.90